Time;durP1;ratioP1;P1;durP2;ratioP2;P2;SDS_P1;SDS_P2;PMS_P1;PMS_P2;Temp;Humidity;BMP_temperature;BMP_pressure;BME280_temperature;BME280_humidity;BME280_pressure;Samples;Min_cycle;Max_cycle;Signal;HPM_P1;HPM_P2
2021/01/20 00:01:37;;;;;;;3.53;3.13;;;3.40;88.60;;;;;;5073153;28;20195;-79
2021/01/20 00:04:04;;;;;;;2.60;2.40;;;3.50;88.60;;;;;;5082890;28;20218;-79
2021/01/20 00:06:30;;;;;;;2.45;2.20;;;3.50;88.40;;;;;;5092186;28;20206;-79
2021/01/20 00:08:58;;;;;;;2.53;2.33;;;3.50;88.40;;;;;;5081970;28;20264;-80
2021/01/20 00:11:25;;;;;;;4.15;2.17;;;3.40;88.60;;;;;;5075083;28;20609;-79
2021/01/20 00:13:52;;;;;;;2.70;2.22;;;3.40;89.30;;;;;;5084571;28;20191;-79
2021/01/20 00:16:19;;;;;;;2.05;1.95;;;3.30;89.70;;;;;;5093096;28;20268;-79
2021/01/20 00:18:45;;;;;;;2.20;2.00;;;3.40;89.80;;;;;;5073058;28;20234;-79
2021/01/20 00:21:11;;;;;;;1.88;1.77;;;3.30;89.70;;;;;;5086548;28;20221;-80
2021/01/20 00:23:38;;;;;;;1.85;1.75;;;3.30;89.80;;;;;;5072582;28;20195;-79
2021/01/20 00:26:05;;;;;;;3.13;2.50;;;3.30;89.90;;;;;;5080962;28;20198;-79
2021/01/20 00:28:32;;;;;;;2.33;2.13;;;3.30;90.10;;;;;;5072258;28;20207;-79
2021/01/20 00:30:58;;;;;;;2.50;2.30;;;3.20;90.40;;;;;;5084507;28;20207;-79
2021/01/20 00:33:24;;;;;;;3.58;2.30;;;3.30;90.60;;;;;;5073296;28;20215;-79
2021/01/20 00:35:51;;;;;;;2.47;2.28;;;3.30;90.60;;;;;;5073725;28;20257;-79
2021/01/20 00:38:18;;;;;;;2.80;2.00;;;3.30;90.60;;;;;;5078488;28;20203;-79
2021/01/20 00:40:44;;;;;;;3.35;2.30;;;3.30;90.50;;;;;;5088799;28;20206;-79
2021/01/20 00:43:11;;;;;;;3.40;2.70;;;3.30;90.50;;;;;;5083525;28;20195;-79
2021/01/20 00:45:38;;;;;;;2.70;2.50;;;3.40;90.50;;;;;;5087851;28;20223;-79
2021/01/20 00:48:10;;;;;;;3.00;1.92;;;3.30;90.50;;;;;;5072199;28;20227;-79
2021/01/20 00:50:36;;;;;;;1.90;1.80;;;3.30;90.50;;;;;;5075782;28;20191;-79
2021/01/20 00:53:03;;;;;;;5.65;2.83;;;3.40;90.50;;;;;;5072050;28;20242;-79
2021/01/20 00:55:29;;;;;;;2.50;1.92;;;3.30;90.50;;;;;;5084959;28;20225;-78
2021/01/20 00:57:55;;;;;;;2.15;2.05;;;3.30;91.00;;;;;;5092764;28;20198;-79
2021/01/20 01:00:24;;;;;;;1.77;1.67;;;3.40;90.90;;;;;;5083751;28;20225;-79
2021/01/20 01:02:51;;;;;;;2.17;1.70;;;3.30;90.80;;;;;;5082777;28;20191;-79
2021/01/20 01:05:18;;;;;;;2.40;1.83;;;3.30;91.00;;;;;;5076265;28;20730;-79
2021/01/20 01:07:45;;;;;;;2.95;2.45;;;3.30;90.90;;;;;;5091296;28;20237;-79
2021/01/20 01:10:12;;;;;;;2.30;2.10;;;3.40;91.00;;;;;;5087905;28;20665;-79
2021/01/20 01:12:39;;;;;;;2.53;2.33;;;3.30;91.10;;;;;;5072041;28;20269;-79
2021/01/20 01:15:06;;;;;;;1.67;1.58;;;3.20;91.10;;;;;;5073561;28;20238;-79
2021/01/20 01:17:33;;;;;;;3.72;2.20;;;3.20;91.20;;;;;;5071336;28;20250;-79
2021/01/20 01:20:00;;;;;;;2.40;1.90;;;3.20;91.30;;;;;;5079813;28;20229;-79
2021/01/20 01:22:26;;;;;;;3.00;2.20;;;3.10;91.30;;;;;;5072789;28;20677;-79
2021/01/20 01:24:52;;;;;;;1.90;1.80;;;3.10;91.40;;;;;;5091018;28;20226;-79
2021/01/20 01:27:19;;;;;;;2.08;1.67;;;3.00;91.40;;;;;;5072408;28;20481;-78
2021/01/20 01:29:45;;;;;;;3.42;2.03;;;3.00;91.70;;;;;;5072445;28;20222;-78
2021/01/20 01:32:11;;;;;;;2.25;2.05;;;2.90;91.50;;;;;;5085918;28;20227;-79
2021/01/20 01:34:39;;;;;;;2.38;1.63;;;3.00;91.60;;;;;;5092093;28;20802;-79
2021/01/20 01:37:05;;;;;;;1.52;1.42;;;3.00;91.60;;;;;;5081734;28;20230;-79
2021/01/20 01:39:33;;;;;;;5.47;2.40;;;3.10;91.70;;;;;;5077909;28;20742;-79
2021/01/20 01:42:00;;;;;;;2.72;1.90;;;3.20;91.60;;;;;;5072689;28;20215;-78
2021/01/20 01:44:26;;;;;;;2.03;1.83;;;3.20;91.40;;;;;;5071469;28;20195;-79
2021/01/20 01:46:53;;;;;;;2.47;2.28;;;3.20;91.70;;;;;;5079361;28;20529;-79
2021/01/20 01:49:19;;;;;;;2.28;1.92;;;3.20;91.30;;;;;;5070983;28;20257;-79
2021/01/20 01:51:46;;;;;;;2.00;1.80;;;3.20;91.20;;;;;;5090126;28;20225;-78
2021/01/20 01:54:14;;;;;;;2.30;2.10;;;3.10;91.20;;;;;;5090800;28;20233;-78
2021/01/20 01:56:41;;;;;;;2.05;1.90;;;3.10;91.30;;;;;;5078232;28;20218;-79
2021/01/20 01:59:07;;;;;;;1.98;1.83;;;3.10;91.50;;;;;;5091218;28;20241;-78
2021/01/20 02:01:34;;;;;;;2.90;1.75;;;3.00;91.60;;;;;;5088928;28;20203;-79
2021/01/20 02:04:01;;;;;;;2.42;2.00;;;3.00;91.90;;;;;;5073878;28;20238;-79
2021/01/20 02:06:29;;;;;;;2.17;2.08;;;3.00;91.90;;;;;;5090130;28;20187;-79
2021/01/20 02:08:58;;;;;;;2.58;2.20;;;3.00;92.00;;;;;;5075132;28;20214;-78
2021/01/20 02:11:40;;;;;;;2.22;2.03;;;3.10;92.00;;;;;;5076666;28;20613;-78
2021/01/20 02:14:27;;;;;;;2.88;2.20;;;3.10;92.30;;;;;;5077359;28;20199;-77
2021/01/20 02:17:06;;;;;;;2.38;2.15;;;3.10;92.00;;;;;;5082584;28;20202;-78
2021/01/20 02:20:02;;;;;;;2.25;1.80;;;3.10;92.00;;;;;;5088220;28;20249;-78
2021/01/20 02:22:35;;;;;;;5.07;1.90;;;3.00;91.90;;;;;;5086940;28;20655;-78
2021/01/20 02:25:34;;;;;;;2.25;2.05;;;3.10;92.00;;;;;;5091717;28;20655;-78
2021/01/20 02:28:08;;;;;;;2.13;1.92;;;3.10;92.00;;;;;;5085541;28;20225;-77
2021/01/20 02:30:39;;;;;;;2.35;1.90;;;3.10;92.00;;;;;;5087763;28;20244;-78
2021/01/20 02:33:08;;;;;;;1.75;1.65;;;3.10;92.10;;;;;;5072226;28;20195;-78
2021/01/20 02:35:37;;;;;;;1.70;1.60;;;3.10;92.20;;;;;;5074616;28;20199;-78
2021/01/20 02:38:05;;;;;;;1.60;1.50;;;3.10;92.30;;;;;;5071932;28;20210;-78
2021/01/20 02:40:33;;;;;;;2.33;1.63;;;3.10;92.50;;;;;;5073808;28;20214;-78
2021/01/20 02:43:00;;;;;;;1.73;1.60;;;3.10;92.50;;;;;;5080088;28;20215;-78
2021/01/20 02:45:29;;;;;;;1.70;1.48;;;3.20;93.20;;;;;;5092182;28;20222;-78
2021/01/20 02:47:58;;;;;;;1.88;1.67;;;3.20;92.80;;;;;;5082312;28;20207;-78
2021/01/20 02:50:27;;;;;;;1.80;1.70;;;3.20;92.80;;;;;;5071140;28;20222;-78
2021/01/20 02:53:01;;;;;;;2.03;1.67;;;3.30;92.90;;;;;;5078997;28;20218;-78
2021/01/20 02:55:33;;;;;;;2.83;1.75;;;3.30;92.90;;;;;;5084079;28;20209;-78
2021/01/20 02:58:04;;;;;;;2.13;1.95;;;3.30;93.00;;;;;;5071518;28;20200;-78
2021/01/20 03:00:33;;;;;;;1.60;1.50;;;3.50;93.00;;;;;;5075227;28;20575;-77
2021/01/20 03:03:05;;;;;;;2.13;1.40;;;3.30;92.70;;;;;;5074488;28;20207;-78
2021/01/20 03:05:34;;;;;;;1.65;1.52;;;3.40;93.00;;;;;;5089199;28;20199;-78
2021/01/20 03:08:00;;;;;;;2.03;1.67;;;3.40;92.80;;;;;;5088041;28;20210;-78
2021/01/20 03:10:27;;;;;;;1.55;1.45;;;3.50;92.70;;;;;;5095110;28;20207;-78
2021/01/20 03:12:54;;;;;;;1.70;1.60;;;3.40;92.70;;;;;;5097189;28;20301;-78
2021/01/20 03:15:23;;;;;;;2.67;1.77;;;3.40;92.70;;;;;;5095411;28;20198;-78
2021/01/20 03:17:49;;;;;;;2.45;1.80;;;3.40;92.80;;;;;;5096304;28;20194;-78
2021/01/20 03:20:17;;;;;;;1.60;1.50;;;4.70;93.40;;;;;;5092932;28;20244;-79
2021/01/20 03:22:43;;;;;;;2.22;2.03;;;3.50;92.60;;;;;;5090017;28;20738;-78
2021/01/20 03:25:11;;;;;;;2.00;1.83;;;3.60;92.60;;;;;;5090916;28;20188;-78
2021/01/20 03:27:37;;;;;;;2.22;1.85;;;3.60;92.40;;;;;;5075771;28;20191;-78
2021/01/20 03:30:04;;;;;;;2.00;1.52;;;3.60;92.30;;;;;;5083073;28;20187;-78
2021/01/20 03:32:31;;;;;;;2.60;1.80;;;3.60;92.20;;;;;;5095885;28;20222;-78
2021/01/20 03:34:58;;;;;;;4.53;1.65;;;3.50;92.10;;;;;;5090107;28;20194;-78
2021/01/20 03:37:25;;;;;;;1.52;1.42;;;3.50;92.10;;;;;;5079520;28;20210;-78
2021/01/20 03:39:51;;;;;;;1.77;1.67;;;3.50;92.10;;;;;;5079928;28;20232;-78
2021/01/20 03:42:18;;;;;;;1.63;1.50;;;3.50;92.50;;;;;;5094370;28;20213;-78
2021/01/20 03:44:44;;;;;;;1.73;1.50;;;3.40;92.20;;;;;;5079783;28;20198;-77
2021/01/20 03:47:11;;;;;;;1.77;1.58;;;3.40;92.20;;;;;;5075880;28;20231;-78
2021/01/20 03:49:37;;;;;;;2.15;1.90;;;3.30;92.20;;;;;;5075935;28;20253;-78
2021/01/20 03:52:04;;;;;;;1.95;1.65;;;3.20;92.30;;;;;;5084252;28;20222;-78
2021/01/20 03:54:31;;;;;;;2.05;1.85;;;3.20;92.40;;;;;;5096232;28;20602;-78
2021/01/20 03:56:57;;;;;;;1.60;1.50;;;3.20;92.50;;;;;;5077675;28;20506;-77
2021/01/20 03:59:24;;;;;;;2.25;2.05;;;3.20;92.60;;;;;;5089802;28;20230;-78
2021/01/20 04:01:50;;;;;;;1.80;1.58;;;3.10;92.50;;;;;;5094141;28;20199;-78
2021/01/20 04:04:17;;;;;;;2.10;1.90;;;3.10;92.60;;;;;;5090977;28;20187;-78
2021/01/20 04:06:45;;;;;;;2.08;1.90;;;3.20;92.60;;;;;;5094897;28;20201;-78
2021/01/20 04:09:12;;;;;;;2.15;1.65;;;3.20;92.50;;;;;;5092255;28;20276;-77
2021/01/20 04:11:39;;;;;;;2.47;1.25;;;3.10;92.40;;;;;;5077446;28;20222;-78
2021/01/20 04:14:05;;;;;;;2.42;1.95;;;3.00;92.50;;;;;;5095402;28;20206;-78
2021/01/20 04:16:32;;;;;;;1.92;1.73;;;3.00;92.60;;;;;;5076322;28;20724;-78
2021/01/20 04:18:58;;;;;;;3.15;2.00;;;3.00;92.70;;;;;;5074996;28;20195;-78
2021/01/20 04:21:24;;;;;;;2.75;2.53;;;3.00;92.80;;;;;;5075196;28;20203;-78
2021/01/20 04:23:51;;;;;;;2.75;1.83;;;3.00;92.60;;;;;;5075498;28;20241;-78
2021/01/20 04:26:18;;;;;;;2.13;1.92;;;3.00;93.00;;;;;;5075323;28;20217;-78
2021/01/20 04:28:45;;;;;;;2.20;2.00;;;3.00;92.70;;;;;;5074467;28;20195;-78
2021/01/20 04:31:11;;;;;;;1.85;1.67;;;3.00;92.60;;;;;;5071801;28;20246;-78
2021/01/20 04:33:38;;;;;;;2.33;2.13;;;3.00;92.60;;;;;;5073361;28;20188;-78
2021/01/20 04:36:04;;;;;;;2.92;2.72;;;3.30;92.80;;;;;;5085597;28;20203;-78
2021/01/20 04:38:31;;;;;;;2.75;2.50;;;3.00;92.60;;;;;;5078596;28;20196;-78
2021/01/20 04:40:57;;;;;;;4.43;3.00;;;2.90;92.60;;;;;;5086437;28;20557;-78
2021/01/20 04:43:24;;;;;;;3.88;2.70;;;3.00;92.80;;;;;;5082775;28;20695;-78
2021/01/20 04:45:53;;;;;;;4.13;2.30;;;3.00;92.70;;;;;;5075813;28;20283;-77
2021/01/20 04:48:19;;;;;;;3.40;2.33;;;3.00;93.00;;;;;;5089504;28;20194;-77
2021/01/20 04:50:47;;;;;;;3.17;2.40;;;3.00;92.70;;;;;;5090180;28;20191;-77
2021/01/20 04:53:15;;;;;;;2.10;1.90;;;3.10;92.70;;;;;;5089819;28;20285;-78
2021/01/20 04:55:43;;;;;;;2.95;2.05;;;3.10;92.70;;;;;;5085617;28;20214;-77
2021/01/20 04:58:10;;;;;;;2.50;2.30;;;3.20;92.60;;;;;;5091004;28;20211;-77
2021/01/20 05:00:38;;;;;;;1.95;1.65;;;3.30;92.60;;;;;;5076405;28;20191;-77
2021/01/20 05:03:06;;;;;;;2.05;1.88;;;3.30;92.40;;;;;;5076230;28;20237;-77
2021/01/20 05:05:33;;;;;;;3.17;2.15;;;3.20;92.30;;;;;;5075651;28;20203;-78
2021/01/20 05:08:00;;;;;;;2.67;2.00;;;3.30;92.40;;;;;;5075024;28;20231;-77
2021/01/20 05:10:27;;;;;;;2.15;1.83;;;3.30;92.70;;;;;;5082413;28;20206;-77
2021/01/20 05:12:54;;;;;;;2.60;1.95;;;3.40;92.40;;;;;;5085342;28;20226;-78
2021/01/20 05:15:30;;;;;;;2.30;2.10;;;3.40;92.30;;;;;;5093857;28;21003;-77
2021/01/20 05:17:58;;;;;;;2.38;2.17;;;3.40;92.40;;;;;;5092371;28;20198;-77
2021/01/20 05:20:33;;;;;;;1.90;1.80;;;3.40;92.40;;;;;;5086706;28;20196;-77
2021/01/20 05:23:00;;;;;;;2.45;2.25;;;3.40;92.30;;;;;;5090534;28;20193;-77
2021/01/20 05:25:30;;;;;;;2.10;2.00;;;3.50;92.30;;;;;;5081543;28;20215;-78
2021/01/20 05:27:57;;;;;;;2.08;1.90;;;3.50;92.20;;;;;;5078868;28;20268;-78
2021/01/20 05:30:24;;;;;;;1.90;1.80;;;3.60;92.40;;;;;;5091761;28;20233;-77
2021/01/20 05:32:59;;;;;;;1.75;1.40;;;3.60;92.10;;;;;;5093585;28;20269;-78
2021/01/20 05:35:26;;;;;;;2.20;2.00;;;3.60;92.00;;;;;;5091791;28;20194;-77
2021/01/20 05:37:53;;;;;;;1.50;1.40;;;3.60;92.00;;;;;;5091816;28;20672;-77
2021/01/20 05:40:20;;;;;;;2.28;1.90;;;3.60;92.00;;;;;;5091501;28;20195;-77
2021/01/20 05:42:51;;;;;;;2.22;2.03;;;3.60;91.90;;;;;;5092007;28;20194;-77
2021/01/20 05:45:20;;;;;;;2.15;1.85;;;3.70;91.80;;;;;;5082874;28;20199;-77
2021/01/20 05:48:07;;;;;;;1.58;1.48;;;3.70;91.80;;;;;;5087022;28;20198;-77
2021/01/20 05:50:35;;;;;;;2.00;1.52;;;3.80;91.80;;;;;;5086031;28;20289;-78
2021/01/20 05:53:06;;;;;;;2.53;2.33;;;3.80;91.60;;;;;;5092523;28;20729;-78
2021/01/20 05:55:33;;;;;;;2.83;2.10;;;3.90;91.60;;;;;;5076934;28;20652;-78
2021/01/20 05:58:00;;;;;;;2.17;2.03;;;3.90;91.60;;;;;;5090745;28;20537;-79
2021/01/20 06:00:27;;;;;;;4.20;3.10;;;4.00;91.60;;;;;;5089954;28;20206;-79
2021/01/20 06:02:55;;;;;;;3.60;2.80;;;3.90;91.50;;;;;;5080606;28;20203;-78
2021/01/20 06:05:22;;;;;;;2.72;2.08;;;4.10;91.90;;;;;;5093144;28;20326;-79
2021/01/20 06:07:50;;;;;;;2.80;2.00;;;3.90;91.50;;;;;;5077362;28;20258;-79
2021/01/20 06:10:18;;;;;;;2.20;2.10;;;4.00;91.50;;;;;;5080362;28;20542;-78
2021/01/20 06:12:45;;;;;;;3.22;2.20;;;4.00;91.40;;;;;;5091180;28;20218;-78
2021/01/20 06:15:13;;;;;;;2.40;2.20;;;4.00;91.50;;;;;;5081226;28;20207;-78
2021/01/20 06:17:42;;;;;;;2.40;2.20;;;4.00;91.40;;;;;;5081001;28;20278;-79
2021/01/20 06:20:11;;;;;;;2.78;2.53;;;4.00;91.50;;;;;;5088330;28;20192;-78
2021/01/20 06:22:45;;;;;;;3.72;2.50;;;4.00;91.40;;;;;;5079889;28;20203;-79
2021/01/20 06:25:17;;;;;;;4.10;2.72;;;4.00;91.20;;;;;;5079573;28;20194;-78
2021/01/20 06:27:51;;;;;;;9.10;2.38;;;4.00;91.30;;;;;;5082292;28;20590;-79
2021/01/20 06:30:20;;;;;;;2.20;1.95;;;4.00;91.40;;;;;;5074641;28;20195;-79
2021/01/20 06:32:48;;;;;;;3.15;2.58;;;4.10;91.50;;;;;;5089376;28;20585;-80
2021/01/20 06:35:16;;;;;;;3.50;2.60;;;4.10;91.30;;;;;;5083401;28;20209;-81
2021/01/20 06:37:44;;;;;;;12.23;3.15;;;4.10;91.50;;;;;;5088701;28;20600;-82
2021/01/20 06:40:47;;;;;;;3.50;2.50;;;4.10;91.60;;;;;;5081586;28;20199;-81
2021/01/20 06:43:34;;;;;;;14.75;3.15;;;4.10;91.70;;;;;;5073808;28;20207;-81
2021/01/20 06:46:26;;;;;;;12.70;3.50;;;4.20;91.60;;;;;;5089458;28;20230;-81
2021/01/20 06:49:09;;;;;;;21.98;3.88;;;4.20;91.60;;;;;;5073400;28;20290;-80
2021/01/20 06:51:36;;;;;;;26.13;5.80;;;4.20;91.50;;;;;;5094234;28;20222;-80
2021/01/20 06:54:10;;;;;;;42.53;7.03;;;4.20;91.60;;;;;;5091314;28;20582;-80
2021/01/20 06:56:38;;;;;;;20.85;6.18;;;4.20;91.40;;;;;;5092752;28;20203;-80
2021/01/20 06:59:22;;;;;;;9.73;2.90;;;4.30;91.50;;;;;;5092065;28;20282;-80
2021/01/20 07:02:13;;;;;;;8.35;3.65;;;4.30;91.30;;;;;;5094032;28;20204;-80
2021/01/20 07:04:55;;;;;;;4.20;2.90;;;4.30;91.40;;;;;;5082570;28;20689;-80
2021/01/20 07:08:01;;;;;;;9.73;3.00;;;4.40;91.30;;;;;;5071270;28;20219;-80
2021/01/20 07:10:30;;;;;;;6.32;3.40;;;4.30;91.30;;;;;;5076095;28;20530;-80
2021/01/20 07:13:17;;;;;;;7.65;5.70;;;4.30;91.40;;;;;;5085424;28;20262;-80
2021/01/20 07:15:54;;;;;;;8.50;6.40;;;4.30;91.40;;;;;;5093064;28;20195;-81
2021/01/20 07:18:23;;;;;;;17.98;15.30;;;4.30;91.50;;;;;;5091901;28;20252;-81
2021/01/20 07:20:50;;;;;;;8.38;7.25;;;4.40;91.30;;;;;;5074310;28;20198;-81
2021/01/20 07:23:17;;;;;;;9.95;8.95;;;4.40;91.00;;;;;;5092750;28;20194;-81
2021/01/20 07:25:48;;;;;;;7.80;6.50;;;4.40;90.80;;;;;;5082208;28;20278;-80
2021/01/20 07:28:15;;;;;;;3.60;3.13;;;4.30;91.00;;;;;;5073878;28;20214;-80
2021/01/20 07:30:44;;;;;;;2.42;2.33;;;4.50;91.10;;;;;;5074660;28;20200;-80
2021/01/20 07:33:16;;;;;;;3.75;2.72;;;4.40;90.80;;;;;;5074201;28;20296;-81
2021/01/20 07:35:42;;;;;;;3.08;2.55;;;4.40;90.80;;;;;;5075417;28;20200;-81
2021/01/20 07:38:08;;;;;;;3.85;2.85;;;4.50;90.70;;;;;;5073888;28;20207;-81
2021/01/20 07:40:37;;;;;;;3.20;2.72;;;4.50;90.50;;;;;;5078021;28;20195;-81
2021/01/20 07:43:04;;;;;;;7.07;2.72;;;4.60;90.30;;;;;;5072486;28;20555;-81
2021/01/20 07:45:36;;;;;;;3.05;2.53;;;4.50;90.00;;;;;;5090749;28;20194;-80
2021/01/20 07:48:04;;;;;;;5.43;2.85;;;4.50;90.00;;;;;;5091321;28;20205;-81
2021/01/20 07:50:40;;;;;;;2.67;2.03;;;4.60;90.10;;;;;;5075097;28;20202;-81
2021/01/20 07:53:09;;;;;;;2.92;2.10;;;4.70;90.10;;;;;;5072224;28;20231;-80
2021/01/20 07:55:36;;;;;;;2.70;2.40;;;4.70;89.70;;;;;;5071606;28;20199;-80
2021/01/20 07:58:03;;;;;;;3.45;2.50;;;4.80;88.80;;;;;;5082532;28;20562;-81
2021/01/20 08:00:30;;;;;;;3.15;2.13;;;4.90;88.60;;;;;;5086880;28;20247;-81
2021/01/20 08:03:00;;;;;;;3.58;3.13;;;5.00;88.60;;;;;;5074706;28;20203;-81
2021/01/20 08:05:36;;;;;;;1.80;1.63;;;5.00;87.90;;;;;;5072407;28;20231;-81
2021/01/20 08:08:11;;;;;;;4.15;2.88;;;5.10;87.80;;;;;;5078317;28;20195;-81
2021/01/20 08:10:39;;;;;;;3.13;2.83;;;5.10;87.50;;;;;;5080818;28;20306;-81
2021/01/20 08:13:09;;;;;;;3.53;3.22;;;5.10;88.00;;;;;;5078005;28;20252;-82
2021/01/20 08:15:39;;;;;;;3.30;3.00;;;5.10;87.30;;;;;;5086016;28;20554;-80
2021/01/20 08:18:08;;;;;;;3.45;3.15;;;5.10;87.00;;;;;;5078640;28;20279;-81
2021/01/20 08:20:35;;;;;;;2.97;2.63;;;5.10;86.80;;;;;;5080063;28;20187;-81
2021/01/20 08:23:05;;;;;;;4.28;2.80;;;5.10;87.00;;;;;;5078777;28;20196;-81
2021/01/20 08:25:32;;;;;;;3.53;2.72;;;5.20;86.30;;;;;;5091862;28;20631;-81
2021/01/20 08:32:24;;;;;;;3.90;2.88;;;5.30;86.30;;;;;;5062082;28;20237;-80
2021/01/20 08:35:07;;;;;;;3.08;2.70;;;5.30;86.20;;;;;;5063923;28;20734;-81
2021/01/20 08:37:35;;;;;;;5.88;2.78;;;5.40;86.50;;;;;;5078672;28;20191;-81
2021/01/20 08:40:07;;;;;;;4.82;4.13;;;5.30;85.90;;;;;;5082315;28;20217;-81
2021/01/20 08:42:41;;;;;;;3.33;3.03;;;5.30;86.80;;;;;;5070892;28;20219;-82
2021/01/20 08:45:13;;;;;;;3.97;3.30;;;5.40;86.90;;;;;;5085025;28;20198;-81
2021/01/20 08:47:48;;;;;;;3.25;2.95;;;5.40;86.80;;;;;;5081837;28;20195;-81
2021/01/20 08:50:16;;;;;;;2.78;2.25;;;5.50;86.50;;;;;;5072017;28;20202;-81
2021/01/20 08:52:45;;;;;;;2.35;2.25;;;5.50;85.70;;;;;;5078743;28;20214;-81
2021/01/20 08:55:20;;;;;;;2.20;2.00;;;5.60;87.00;;;;;;5081921;28;20211;-81
2021/01/20 08:57:48;;;;;;;2.00;1.90;;;5.60;85.80;;;;;;5089314;28;20663;-81
2021/01/20 09:00:15;;;;;;;3.42;2.55;;;5.50;85.30;;;;;;5077813;28;20207;-81
2021/01/20 09:02:42;;;;;;;3.33;2.25;;;5.60;85.70;;;;;;5070765;28;20195;-82
2021/01/20 09:05:15;;;;;;;2.97;2.53;;;5.50;84.70;;;;;;5073066;28;20214;-82
2021/01/20 09:07:42;;;;;;;4.15;3.50;;;5.60;85.40;;;;;;5082159;28;20202;-81
2021/01/20 09:10:09;;;;;;;2.85;2.65;;;5.60;85.10;;;;;;5083130;28;20221;-81
2021/01/20 09:12:36;;;;;;;3.47;3.03;;;5.50;84.80;;;;;;5084251;28;20715;-82
2021/01/20 09:15:04;;;;;;;3.50;2.70;;;5.50;85.60;;;;;;5081639;28;20194;-82
2021/01/20 09:17:35;;;;;;;5.22;3.42;;;5.50;85.70;;;;;;5091093;28;20195;-81
2021/01/20 09:20:18;;;;;;;3.15;2.60;;;5.60;85.60;;;;;;5082944;28;20211;-81
2021/01/20 09:22:45;;;;;;;3.13;2.92;;;5.60;85.70;;;;;;5087601;28;20229;-82
2021/01/20 09:25:24;;;;;;;3.63;3.10;;;5.50;84.80;;;;;;5080586;28;20699;-81
2021/01/20 09:28:05;;;;;;;2.85;2.30;;;5.90;84.80;;;;;;5081780;28;20217;-81
2021/01/20 09:30:36;;;;;;;3.25;2.40;;;6.00;84.20;;;;;;5085273;28;20530;-82
2021/01/20 09:33:04;;;;;;;2.92;2.72;;;5.90;83.50;;;;;;5089358;28;20230;-82
2021/01/20 09:35:31;;;;;;;2.72;2.53;;;5.90;84.00;;;;;;5082357;28;20228;-81
2021/01/20 09:37:58;;;;;;;3.30;2.72;;;6.00;84.20;;;;;;5089108;28;20190;-82
2021/01/20 09:40:27;;;;;;;3.40;3.10;;;5.80;83.60;;;;;;5090288;28;20198;-81
2021/01/20 09:43:00;;;;;;;4.32;3.15;;;5.90;84.50;;;;;;5078179;28;20202;-82
2021/01/20 09:45:31;;;;;;;3.15;2.33;;;6.00;83.70;;;;;;5090119;28;20202;-82
2021/01/20 09:47:59;;;;;;;2.90;2.60;;;6.10;84.10;;;;;;5089583;28;20733;-82
2021/01/20 09:50:29;;;;;;;4.25;3.30;;;6.20;83.50;;;;;;5088875;28;20248;-83
2021/01/20 09:53:35;;;;;;;3.60;3.30;;;6.20;84.00;;;;;;5089021;28;20621;-82
2021/01/20 09:56:02;;;;;;;3.80;3.40;;;6.20;83.90;;;;;;5054118;28;20203;-81
2021/01/20 09:58:29;;;;;;;3.50;2.40;;;6.20;83.80;;;;;;5087541;28;21568;-82
2021/01/20 10:00:58;;;;;;;3.60;2.90;;;6.30;83.40;;;;;;5071829;28;20309;-82
2021/01/20 10:03:27;;;;;;;3.03;2.75;;;6.10;83.00;;;;;;5089177;28;21503;-81
2021/01/20 10:06:31;;;;;;;4.82;3.50;;;6.30;83.10;;;;;;5088970;28;20205;-82
2021/01/20 10:08:58;;;;;;;4.35;3.45;;;6.20;83.00;;;;;;5074212;28;20206;-82
2021/01/20 10:11:24;;;;;;;5.57;3.13;;;6.30;82.60;;;;;;5086220;28;20214;-82
2021/01/20 10:13:51;;;;;;;5.57;2.67;;;6.30;82.90;;;;;;5087424;28;20695;-83
2021/01/20 10:16:17;;;;;;;4.22;2.95;;;6.30;83.10;;;;;;5085820;28;20196;-81
2021/01/20 10:18:48;;;;;;;5.10;3.13;;;6.30;82.10;;;;;;5072700;28;20561;-82
2021/01/20 10:21:14;;;;;;;3.70;3.00;;;6.40;82.90;;;;;;5083877;28;20278;-83
2021/01/20 10:23:41;;;;;;;4.38;3.13;;;6.40;82.40;;;;;;5080786;28;20198;-83
2021/01/20 10:26:12;;;;;;;3.70;3.17;;;6.70;82.00;;;;;;5076208;28;21277;-83
2021/01/20 10:28:45;;;;;;;7.78;3.63;;;6.70;82.10;;;;;;5083032;28;20194;-82
2021/01/20 10:31:14;;;;;;;4.22;3.75;;;6.80;81.50;;;;;;5078752;28;20680;-83
2021/01/20 10:33:44;;;;;;;6.38;3.88;;;7.00;81.00;;;;;;5078069;28;20556;-83
2021/01/20 10:36:12;;;;;;;6.63;2.67;;;7.00;80.80;;;;;;5071231;28;20272;-82
2021/01/20 10:42:23;;;;;;;5.78;2.95;;;7.10;79.60;;;;;;5045529;28;20215;-83
2021/01/20 10:44:50;;;;;;;3.65;2.90;;;7.20;80.20;;;;;;5081962;28;20249;-83
2021/01/20 10:47:16;;;;;;;4.53;2.75;;;7.30;79.70;;;;;;5089779;28;20190;-83
2021/01/20 10:49:43;;;;;;;6.50;3.30;;;7.40;79.10;;;;;;5085288;28;20194;-83
2021/01/20 10:52:10;;;;;;;2.83;2.50;;;7.40;78.60;;;;;;5086622;28;20226;-83
2021/01/20 10:54:36;;;;;;;3.20;2.85;;;7.40;78.40;;;;;;5082727;28;20335;-83
2021/01/20 10:57:05;;;;;;;3.50;2.88;;;7.50;77.90;;;;;;5085358;28;20707;-83
2021/01/20 10:59:40;;;;;;;3.38;3.08;;;7.50;77.60;;;;;;5075192;28;20211;-83
2021/01/20 11:02:09;;;;;;;3.25;2.65;;;7.40;77.40;;;;;;5090154;28;20244;-83
2021/01/20 11:04:35;;;;;;;3.90;3.53;;;7.50;77.90;;;;;;5083505;28;20205;-83
2021/01/20 11:07:02;;;;;;;3.72;3.38;;;7.60;77.40;;;;;;5089517;28;20205;-83
2021/01/20 11:09:30;;;;;;;6.10;3.50;;;7.60;76.80;;;;;;5076292;28;20219;-83
2021/01/20 11:11:57;;;;;;;3.45;3.10;;;7.70;77.00;;;;;;5076201;28;20767;-83
2021/01/20 11:14:24;;;;;;;4.35;3.40;;;7.70;76.50;;;;;;5078962;28;21075;-84
2021/01/20 11:16:52;;;;;;;5.43;3.67;;;7.70;76.40;;;;;;5089359;28;20201;-84
2021/01/20 11:19:19;;;;;;;4.72;3.28;;;7.60;77.00;;;;;;5074575;28;20199;-83
2021/01/20 11:21:45;;;;;;;7.05;4.32;;;7.70;76.60;;;;;;5081857;28;20199;-83
2021/01/20 11:24:17;;;;;;;7.68;4.90;;;7.50;76.80;;;;;;5071675;28;20679;-83
2021/01/20 11:26:46;;;;;;;7.82;4.35;;;7.50;76.70;;;;;;5072276;28;20206;-84
2021/01/20 11:29:12;;;;;;;4.65;3.95;;;7.50;76.20;;;;;;5080325;28;20651;-84
2021/01/20 11:31:39;;;;;;;3.75;3.45;;;7.60;76.60;;;;;;5076576;28;20282;-83
2021/01/20 11:34:05;;;;;;;4.30;3.75;;;7.60;76.60;;;;;;5090525;28;20205;-84
2021/01/20 11:36:32;;;;;;;4.72;3.63;;;7.50;76.60;;;;;;5078381;28;20198;-84
2021/01/20 11:38:58;;;;;;;6.32;3.67;;;7.50;76.10;;;;;;5075317;28;20672;-84
2021/01/20 11:41:25;;;;;;;5.53;5.00;;;7.60;76.30;;;;;;5073273;28;20212;-84
2021/01/20 11:43:52;;;;;;;4.85;4.43;;;7.50;76.50;;;;;;5085098;28;20211;-84
2021/01/20 11:46:20;;;;;;;6.43;5.20;;;7.50;75.90;;;;;;5076170;28;20256;-84
2021/01/20 11:48:48;;;;;;;7.50;5.53;;;7.50;76.00;;;;;;5080859;28;20280;-83
2021/01/20 11:51:14;;;;;;;6.07;4.22;;;7.50;76.30;;;;;;5083404;28;20701;-83
2021/01/20 11:53:41;;;;;;;7.80;4.78;;;7.60;76.40;;;;;;5083856;28;20219;-83
2021/01/20 11:56:08;;;;;;;6.90;4.80;;;7.60;76.20;;;;;;5073803;28;20308;-84
2021/01/20 11:58:35;;;;;;;9.55;4.50;;;7.60;76.20;;;;;;5074115;28;20207;-84
2021/01/20 12:01:02;;;;;;;6.78;4.55;;;7.60;76.00;;;;;;5076223;28;20254;-84
2021/01/20 12:03:28;;;;;;;6.03;4.20;;;7.60;76.20;;;;;;5074941;28;20203;-84
2021/01/20 12:05:55;;;;;;;5.07;4.57;;;7.60;76.20;;;;;;5090743;28;20207;-84
2021/01/20 12:08:22;;;;;;;8.85;4.82;;;7.70;76.10;;;;;;5076298;28;20199;-84
2021/01/20 12:10:48;;;;;;;7.47;5.20;;;7.80;75.80;;;;;;5088005;28;20194;-84
2021/01/20 12:13:19;;;;;;;6.43;5.15;;;7.90;75.60;;;;;;5078202;28;20223;-84
2021/01/20 12:15:45;;;;;;;5.82;4.85;;;7.90;76.00;;;;;;5086643;28;20850;-84
2021/01/20 12:18:13;;;;;;;9.63;5.45;;;7.90;76.40;;;;;;5091826;28;20203;-84
2021/01/20 12:20:39;;;;;;;10.75;4.80;;;7.90;75.90;;;;;;5087842;28;20199;-84
2021/01/20 12:23:06;;;;;;;11.52;6.80;;;7.90;75.50;;;;;;5091260;28;20699;-84
2021/01/20 12:25:32;;;;;;;9.48;7.32;;;8.00;75.60;;;;;;5085135;28;20662;-84
2021/01/20 12:28:01;;;;;;;10.07;9.05;;;8.00;76.00;;;;;;5090687;28;20205;-84
2021/01/20 12:30:28;;;;;;;25.77;17.10;;;8.00;76.10;;;;;;5080888;28;20195;-83
2021/01/20 12:32:55;;;;;;;18.02;10.10;;;8.00;75.90;;;;;;5089025;28;20302;-84
2021/01/20 12:35:22;;;;;;;12.82;10.43;;;8.00;76.30;;;;;;5089993;28;20559;-83
2021/01/20 12:37:49;;;;;;;7.90;6.78;;;7.90;76.60;;;;;;5091077;28;20186;-84
2021/01/20 12:40:16;;;;;;;12.80;9.10;;;7.90;77.10;;;;;;5079694;28;20294;-84
2021/01/20 12:42:44;;;;;;;20.10;13.65;;;7.80;76.80;;;;;;5085821;28;20219;-84
2021/01/20 12:45:12;;;;;;;8.15;4.35;;;7.80;76.60;;;;;;5091305;28;20187;-85
2021/01/20 12:47:39;;;;;;;11.90;8.88;;;7.80;77.20;;;;;;5090500;28;20289;-84
2021/01/20 12:50:07;;;;;;;9.18;8.23;;;7.80;77.80;;;;;;5090397;28;20201;-84
2021/01/20 12:52:34;;;;;;;7.20;5.70;;;7.90;77.90;;;;;;5090474;28;20227;-83
2021/01/20 12:55:01;;;;;;;6.75;4.30;;;7.80;77.10;;;;;;5082630;28;20191;-84
2021/01/20 12:57:28;;;;;;;6.90;5.20;;;7.90;77.20;;;;;;5081110;28;20190;-84
2021/01/20 12:59:54;;;;;;;4.97;4.43;;;8.00;77.00;;;;;;5084593;28;20211;-84
2021/01/20 13:02:21;;;;;;;4.93;4.35;;;7.60;77.20;;;;;;5070391;28;20203;-84
2021/01/20 13:04:50;;;;;;;4.95;4.50;;;7.60;78.50;;;;;;5076197;28;20630;-84
2021/01/20 13:07:17;;;;;;;5.03;3.83;;;7.70;78.60;;;;;;5088816;28;20199;-84
2021/01/20 13:09:44;;;;;;;4.40;4.00;;;7.90;78.40;;;;;;5079372;28;20202;-84
2021/01/20 13:12:12;;;;;;;5.57;3.95;;;7.90;77.60;;;;;;5088393;28;20229;-85
2021/01/20 13:14:38;;;;;;;6.35;4.57;;;7.80;77.90;;;;;;5088984;28;20198;-85